Time;durP1;ratioP1;P1;durP2;ratioP2;P2;SDS_P1;SDS_P2;PMS_P1;PMS_P2;Temp;Humidity;BMP_temperature;BMP_pressure;BME280_temperature;BME280_humidity;BME280_pressure;Samples;Min_cycle;Max_cycle;Signal;HPM_P1;HPM_P2
2021/10/11 00:01:02;;;;;;;19.35;10.18;;;;;;;10.96;100.00;97478.66;5022605;28;20053;-64
2021/10/11 00:03:29;;;;;;;17.45;9.90;;;;;;;10.96;100.00;97488.94;5022214;28;20063;-63
2021/10/11 00:05:56;;;;;;;16.33;9.55;;;;;;;10.80;100.00;97446.59;5022345;28;20053;-63
2021/10/11 00:08:22;;;;;;;19.33;9.95;;;;;;;10.95;100.00;97454.06;5023956;28;20062;-63
2021/10/11 00:10:51;;;;;;;15.98;10.05;;;;;;;10.19;100.00;97360.53;5024006;28;20049;-64
2021/10/11 00:13:19;;;;;;;16.33;9.98;;;;;;;10.88;100.00;97432.53;5023910;28;20489;-65
2021/10/11 00:15:46;;;;;;;20.10;10.05;;;;;;;10.81;100.00;97426.06;5021885;28;20570;-64
2021/10/11 00:18:13;;;;;;;16.27;10.15;;;;;;;10.95;100.00;97426.34;5023889;28;20050;-64
2021/10/11 00:20:41;;;;;;;18.25;9.65;;;;;;;10.59;100.00;97341.69;5022000;28;20085;-65
2021/10/11 00:23:10;;;;;;;15.80;10.00;;;;;;;11.12;100.00;97421.19;5023643;28;20084;-64
2021/10/11 00:25:37;;;;;;;16.90;9.85;;;;;;;10.37;100.00;97312.69;5023729;28;20522;-65
2021/10/11 00:28:04;;;;;;;18.13;9.70;;;;;;;10.98;100.00;97417.31;5022536;28;20444;-65
2021/10/11 00:30:32;;;;;;;20.88;10.52;;;;;;;10.91;100.00;97422.72;5022345;28;20057;-64
2021/10/11 00:32:59;;;;;;;16.77;9.68;;;;;;;10.96;100.00;97416.88;5023808;28;20228;-64
2021/10/11 00:35:26;;;;;;;23.40;9.85;;;;;;;10.42;100.00;97342.88;5023613;28;20510;-65
2021/10/11 00:37:53;;;;;;;18.40;10.10;;;;;;;10.93;100.00;97406.50;5022174;28;20049;-66
2021/10/11 00:40:20;;;;;;;17.85;9.93;;;;;;;10.65;100.00;97410.25;5022269;28;20060;-64
2021/10/11 00:42:47;;;;;;;17.60;9.98;;;;;;;10.58;100.00;97374.09;5023380;28;20537;-65
2021/10/11 00:45:13;;;;;;;19.85;10.10;;;;;;;10.82;100.00;97411.84;5023666;28;20056;-63
2021/10/11 00:47:40;;;;;;;19.58;9.80;;;;;;;10.38;100.00;97330.13;5023819;28;20049;-65
2021/10/11 00:50:08;;;;;;;22.20;11.23;;;;;;;10.72;100.00;97367.28;5023754;28;20046;-64
2021/10/11 00:52:35;;;;;;;20.20;10.93;;;;;;;10.99;100.00;97405.03;5022362;28;20050;-65
2021/10/11 00:55:02;;;;;;;15.90;9.30;;;;;;;11.09;100.00;97401.69;5023619;28;20412;-65
2021/10/11 00:57:28;;;;;;;18.92;8.93;;;;;;;10.98;100.00;97397.91;5021731;28;20060;-64
2021/10/11 00:59:55;;;;;;;15.27;9.70;;;;;;;11.09;100.00;97398.94;5023294;28;20444;-65
2021/10/11 01:02:22;;;;;;;20.67;11.00;;;;;;;11.11;100.00;97396.59;5023081;28;20053;-65
2021/10/11 01:04:49;;;;;;;21.40;10.77;;;;;;;10.60;100.00;97302.53;5021953;28;20064;-65
2021/10/11 01:07:16;;;;;;;19.17;9.90;;;;;;;10.89;100.00;97394.56;5023623;28;20587;-64
2021/10/11 01:09:43;;;;;;;23.98;10.20;;;;;;;10.87;100.00;97388.56;5023694;28;20140;-64
2021/10/11 01:12:09;;;;;;;18.83;11.05;;;;;;;8.64;100.00;97032.53;5022893;28;20061;-64
2021/10/11 01:14:36;;;;;;;23.73;11.00;;;;;;;10.78;100.00;97376.91;5023238;28;20053;-64
2021/10/11 01:17:03;;;;;;;20.63;11.25;;;;;;;10.65;100.00;97368.69;5022693;28;20575;-66
2021/10/11 01:19:30;;;;;;;20.33;10.90;;;;;;;10.73;100.00;97381.53;5023247;28;20468;-65
2021/10/11 01:21:57;;;;;;;21.13;11.45;;;;;;;10.65;100.00;97382.56;5021829;28;20535;-65
2021/10/11 01:24:24;;;;;;;26.67;10.38;;;;;;;10.73;100.00;97368.88;5023173;28;20069;-64
2021/10/11 01:26:50;;;;;;;18.92;10.73;;;;;;;10.78;100.00;97366.59;5022954;28;20626;-65
2021/10/11 01:29:17;;;;;;;18.25;10.57;;;;;;;10.66;100.00;97356.47;5021500;28;20064;-65
2021/10/11 01:31:44;;;;;;;19.23;11.63;;;;;;;10.19;100.00;97278.28;5023031;28;20502;-64
2021/10/11 01:34:12;;;;;;;21.30;11.15;;;;;;;10.58;100.00;97312.34;5023101;28;20263;-64
2021/10/11 01:36:39;;;;;;;19.70;11.68;;;;;;;11.10;100.00;97345.88;5023211;28;20060;-65
2021/10/11 01:39:09;;;;;;;17.05;10.23;;;;;;;11.01;100.00;97333.41;5022757;28;20075;-64
2021/10/11 01:41:37;;;;;;;16.48;10.35;;;;;;;10.81;100.00;97342.91;5023511;28;20136;-64
2021/10/11 01:44:05;;;;;;;23.98;10.00;;;;;;;11.04;100.00;97336.28;5022751;28;20050;-64
2021/10/11 01:46:33;;;;;;;16.90;9.88;;;;;;;11.21;100.00;97346.09;5021350;28;20041;-63
2021/10/11 01:48:59;;;;;;;15.43;8.75;;;;;;;10.82;100.00;97283.53;5022754;28;20068;-64
2021/10/11 01:51:26;;;;;;;18.23;9.10;;;;;;;11.10;100.00;97311.81;5024857;28;20050;-64
2021/10/11 01:53:53;;;;;;;17.13;9.20;;;;;;;11.42;100.00;97329.84;5026479;28;20056;-64
2021/10/11 01:56:20;;;;;;;13.82;8.02;;;;;;;11.59;100.00;97335.72;5024580;28;20054;-64
2021/10/11 01:58:47;;;;;;;17.58;8.77;;;;;;;11.41;100.00;97290.22;5026245;28;20060;-64
2021/10/11 02:01:14;;;;;;;14.23;8.00;;;;;;;11.54;100.00;97321.38;5026467;28;20053;-64
2021/10/11 02:03:41;;;;;;;16.02;9.05;;;;;;;11.67;100.00;97320.03;5025689;28;20508;-65
2021/10/11 02:06:07;;;;;;;19.77;8.18;;;;;;;11.63;100.00;97331.06;5026598;28;20488;-65
2021/10/11 02:08:34;;;;;;;15.90;8.13;;;;;;;11.65;100.00;97323.16;5026275;28;20056;-66
2021/10/11 02:11:01;;;;;;;13.57;8.25;;;;;;;11.60;100.00;97297.69;5026158;28;20476;-63
2021/10/11 02:13:28;;;;;;;22.30;8.93;;;;;;;11.41;100.00;97278.34;5026513;28;20164;-63
2021/10/11 02:15:54;;;;;;;17.25;7.50;;;;;;;11.18;100.00;97241.47;5024224;28;20099;-63
2021/10/11 02:18:21;;;;;;;19.80;8.20;;;;;;;11.19;100.00;97237.53;5026510;28;20052;-64
2021/10/11 02:20:48;;;;;;;18.65;7.18;;;;;;;11.67;100.00;97303.38;5026318;28;20056;-64
2021/10/11 02:23:14;;;;;;;18.15;7.03;;;;;;;11.64;100.00;97301.34;5024359;28;20053;-64
2021/10/11 02:25:41;;;;;;;16.25;7.35;;;;;;;11.70;100.00;97297.06;5025916;28;20065;-64
2021/10/11 02:28:08;;;;;;;16.80;7.25;;;;;;;11.64;100.00;97298.56;5024335;28;20057;-63
2021/10/11 02:30:35;;;;;;;15.65;7.38;;;;;;;10.90;100.00;97191.88;5023642;28;20062;-63
2021/10/11 02:33:02;;;;;;;20.83;7.80;;;;;;;11.75;100.00;97294.00;5024408;28;20156;-64
2021/10/11 02:35:29;;;;;;;18.02;7.88;;;;;;;11.84;100.00;97298.13;5025625;28;20051;-65
2021/10/11 02:37:56;;;;;;;17.95;7.65;;;;;;;11.50;100.00;97243.63;5024481;28;20060;-64
2021/10/11 02:40:23;;;;;;;13.05;7.60;;;;;;;11.77;100.00;97286.09;5023851;28;20076;-63
2021/10/11 02:42:49;;;;;;;11.50;6.72;;;;;;;11.13;100.00;97172.47;5024257;28;20054;-64
2021/10/11 02:45:16;;;;;;;14.35;7.45;;;;;;;11.86;100.00;97292.19;5025358;28;20045;-64
2021/10/11 02:47:43;;;;;;;17.42;7.00;;;;;;;11.81;100.00;97292.50;5025405;28;20059;-64
2021/10/11 02:50:10;;;;;;;17.38;7.93;;;;;;;11.74;100.00;97275.75;5025426;28;20050;-64
2021/10/11 02:52:37;;;;;;;11.13;7.10;;;;;;;11.76;100.00;97290.84;5025149;28;20054;-65
2021/10/11 02:55:05;;;;;;;17.58;7.93;;;;;;;11.78;100.00;97287.69;5025571;28;20050;-66
2021/10/11 02:57:32;;;;;;;17.00;7.43;;;;;;;11.36;100.00;97220.41;5025316;28;20057;-66
2021/10/11 02:59:59;;;;;;;14.68;6.95;;;;;;;11.37;100.00;97216.44;5025141;28;20060;-66
2021/10/11 03:02:25;;;;;;;16.95;8.40;;;;;;;11.62;100.00;97267.56;5024741;28;20057;-66
2021/10/11 03:04:52;;;;;;;16.67;7.57;;;;;;;11.66;100.00;97285.94;5023693;28;20050;-65
2021/10/11 03:07:19;;;;;;;14.10;8.07;;;;;;;11.56;100.00;97280.16;5023794;28;20072;-65
2021/10/11 03:09:46;;;;;;;15.80;9.18;;;;;;;11.63;100.00;97277.56;5024746;28;20119;-66
2021/10/11 03:12:13;;;;;;;21.00;10.68;;;;;;;9.58;100.00;96959.19;5025109;28;20049;-65
2021/10/11 03:14:39;;;;;;;21.10;10.63;;;;;;;11.20;100.00;97228.84;5024729;28;20053;-65
2021/10/11 03:17:11;;;;;;;18.33;10.20;;;;;;;11.16;100.00;97199.47;5024458;28;20061;-64
2021/10/11 03:19:38;;;;;;;21.27;12.25;;;;;;;11.57;100.00;97276.25;5024277;28;20053;-66
2021/10/11 03:22:04;;;;;;;18.25;9.40;;;;;;;11.50;100.00;97265.00;5023041;28;20049;-65
2021/10/11 03:24:31;;;;;;;18.33;11.10;;;;;;;11.58;100.00;97266.72;5024329;28;20049;-65
2021/10/11 03:26:58;;;;;;;19.40;10.82;;;;;;;11.51;100.00;97249.97;5024622;28;20536;-65
2021/10/11 03:29:25;;;;;;;23.77;12.15;;;;;;;11.56;100.00;97313.47;5022750;28;20091;-65
2021/10/11 03:31:52;;;;;;;18.27;10.40;;;;;;;11.57;100.00;97270.69;5024983;28;20144;-65
2021/10/11 03:34:19;;;;;;;22.25;10.70;;;;;;;11.61;100.00;97272.34;5024945;28;20507;-65
2021/10/11 03:36:46;;;;;;;16.70;9.70;;;;;;;11.56;100.00;97269.88;5024003;28;20057;-65
2021/10/11 03:39:13;;;;;;;22.92;11.50;;;;;;;9.75;100.00;96991.94;5024249;28;20049;-65
2021/10/11 03:41:40;;;;;;;19.67;10.52;;;;;;;11.51;100.00;97266.59;5024155;28;20057;-65
2021/10/11 03:44:07;;;;;;;22.08;9.65;;;;;;;11.57;100.00;97267.91;5024271;28;20085;-65
2021/10/11 03:46:34;;;;;;;22.42;11.48;;;;;;;11.58;100.00;97266.72;5024080;28;20054;-65
2021/10/11 03:49:03;;;;;;;17.60;9.00;;;;;;;11.64;100.00;97259.72;5024338;28;20060;-65
2021/10/11 03:51:30;;;;;;;19.50;10.63;;;;;;;11.63;100.00;97260.91;5022749;28;20057;-65
2021/10/11 03:53:56;;;;;;;23.23;9.93;;;;;;;11.11;100.00;97180.38;5024383;28;20053;-65
2021/10/11 03:56:23;;;;;;;16.08;9.15;;;;;;;11.59;100.00;97276.66;5024173;28;20056;-66
2021/10/11 03:58:50;;;;;;;17.42;8.35;;;;;;;11.66;100.00;97251.84;5022648;28;20057;-65
2021/10/11 04:01:17;;;;;;;14.90;8.23;;;;;;;11.18;100.00;97219.28;5024143;28;20053;-65
2021/10/11 04:03:44;;;;;;;17.80;8.68;;;;;;;11.49;100.00;97247.56;5023771;28;20053;-64
2021/10/11 04:06:11;;;;;;;21.20;8.80;;;;;;;11.61;100.00;97252.13;5022493;28;20049;-65
2021/10/11 04:08:44;;;;;;;17.73;8.80;;;;;;;11.63;100.00;97255.34;5024495;28;20072;-65
2021/10/11 04:11:22;;;;;;;21.42;8.43;;;;;;;11.66;100.00;97249.06;5024067;28;20424;-65
2021/10/11 04:13:49;;;;;;;18.38;8.82;;;;;;;11.22;100.00;97173.84;5023033;28;20496;-65
2021/10/11 04:16:16;;;;;;;14.50;9.18;;;;;;;11.74;100.00;97236.91;5022092;28;20067;-65
2021/10/11 04:18:42;;;;;;;15.45;7.68;;;;;;;11.44;100.00;97238.75;5023834;28;20049;-65
2021/10/11 04:21:09;;;;;;;13.52;8.02;;;;;;;11.57;100.00;97231.84;5023715;28;20054;-64
2021/10/11 04:23:39;;;;;;;18.05;8.70;;;;;;;11.42;100.00;97202.25;5023885;28;20606;-64
2021/10/11 04:26:06;;;;;;;14.07;8.23;;;;;;;11.66;100.00;97247.09;5022472;28;20119;-65
2021/10/11 04:28:33;;;;;;;17.88;8.07;;;;;;;11.69;100.00;97245.53;5023717;28;20394;-65
2021/10/11 04:31:00;;;;;;;16.10;7.65;;;;;;;11.73;100.00;97251.94;5023171;28;20061;-65
2021/10/11 04:33:26;;;;;;;15.52;8.10;;;;;;;11.60;100.00;97256.06;5023559;28;20052;-65
2021/10/11 04:35:53;;;;;;;15.85;7.28;;;;;;;11.45;100.00;97232.84;5023608;28;20056;-65
2021/10/11 04:38:20;;;;;;;22.40;9.80;;;;;;;10.43;100.00;97078.63;5023857;28;20049;-63
2021/10/11 04:40:47;;;;;;;14.50;8.43;;;;;;;10.79;100.00;97124.38;5021792;28;20166;-65
2021/10/11 04:43:14;;;;;;;15.15;8.18;;;;;;;10.71;100.00;97114.34;5023054;28;20072;-63
2021/10/11 04:45:40;;;;;;;17.88;9.25;;;;;;;11.52;100.00;97241.25;5022170;28;20054;-64
2021/10/11 04:48:10;;;;;;;19.30;9.05;;;;;;;11.35;100.00;97224.34;5023053;28;20058;-64
2021/10/11 04:50:38;;;;;;;17.50;9.88;;;;;;;11.69;100.00;97237.22;5021985;28;20136;-65
2021/10/11 04:53:05;;;;;;;22.13;10.65;;;;;;;11.75;100.00;97238.50;5021650;28;20053;-64
2021/10/11 04:55:32;;;;;;;20.60;10.23;;;;;;;11.72;100.00;97244.78;5023317;28;20057;-63
2021/10/11 04:58:00;;;;;;;17.35;8.20;;;;;;;11.20;100.00;97161.50;5023585;28;20141;-63
2021/10/11 05:00:28;;;;;;;20.58;10.40;;;;;;;11.71;100.00;97243.19;5022011;28;20058;-64
2021/10/11 05:02:55;;;;;;;23.73;13.10;;;;;;;11.68;100.00;97235.63;5023246;28;20126;-65
2021/10/11 05:05:22;;;;;;;20.40;13.05;;;;;;;11.72;100.00;97228.13;5023404;28;20064;-64
2021/10/11 05:07:49;;;;;;;26.83;14.65;;;;;;;11.76;100.00;97240.13;5009056;28;20137;-64
2021/10/11 05:10:15;;;;;;;21.08;10.18;;;;;;;11.64;100.00;97240.31;5021550;28;20171;-63
2021/10/11 05:12:42;;;;;;;18.48;7.50;;;;;;;11.63;100.00;97242.25;5021370;28;20059;-64
2021/10/11 05:15:09;;;;;;;16.25;8.15;;;;;;;11.42;100.00;97202.25;5023312;28;20049;-63
2021/10/11 05:17:36;;;;;;;12.85;6.65;;;;;;;11.47;100.00;97200.00;5022940;28;20532;-65
2021/10/11 05:20:04;;;;;;;12.98;8.20;;;;;;;10.94;100.00;97114.34;5021541;28;20443;-64
2021/10/11 05:22:31;;;;;;;14.18;9.52;;;;;;;11.69;100.00;97240.00;5022785;28;20089;-64
2021/10/11 05:55:50;;;;;;;18.25;9.98;;;;;;;11.54;100.00;97243.69;4975507;28;20579;-61
2021/10/11 05:58:17;;;;;;;21.45;10.45;;;;;;;11.63;100.00;97247.03;4978650;28;20433;-60
2021/10/11 06:00:44;;;;;;;12.63;8.07;;;;;;;11.20;100.00;97251.03;4990486;28;20084;-59
2021/10/11 06:03:10;;;;;;;23.15;12.45;;;;;;;11.04;100.00;97216.25;4989220;28;20056;-59
2021/10/11 06:05:37;;;;;;;22.50;11.13;;;;;;;11.36;100.00;97214.84;4995377;28;20049;-59
2021/10/11 06:08:04;;;;;;;13.55;7.78;;;;;;;11.55;100.00;97250.84;4979036;28;20545;-61
2021/10/11 06:10:31;;;;;;;16.42;8.07;;;;;;;11.48;100.00;97256.25;4977626;28;20099;-60
2021/10/11 06:12:58;;;;;;;14.65;8.48;;;;;;;11.48;100.00;97259.03;4976759;28;20507;-60
2021/10/11 06:15:25;;;;;;;10.73;6.90;;;;;;;11.52;100.00;97254.34;4978360;28;20050;-61
2021/10/11 06:17:51;;;;;;;15.48;7.93;;;;;;;11.56;100.00;97257.97;4976102;28;20315;-59
2021/10/11 06:20:18;;;;;;;10.90;7.00;;;;;;;11.21;100.00;97188.03;4977349;28;20393;-61
2021/10/11 06:22:45;;;;;;;14.20;7.25;;;;;;;10.77;100.00;97114.81;4976627;28;20069;-64
2021/10/11 06:25:12;;;;;;;10.27;7.00;;;;;;;11.58;100.00;97225.13;4976929;28;20045;-60
2021/10/11 06:27:38;;;;;;;12.88;6.90;;;;;;;11.50;100.00;97215.06;4977295;28;20049;-62
2021/10/11 06:30:10;;;;;;;12.45;6.82;;;;;;;11.57;100.00;97234.63;4977058;28;20053;-63
2021/10/11 06:32:36;;;;;;;15.35;7.32;;;;;;;11.13;100.00;97172.47;4977448;28;20504;-62
2021/10/11 06:35:04;;;;;;;15.02;8.80;;;;;;;11.62;100.00;97267.56;4976528;28;20368;-61
2021/10/11 06:37:30;;;;;;;15.48;9.20;;;;;;;11.79;100.00;97256.78;4978385;28;20555;-63
2021/10/11 06:39:57;;;;;;;15.30;8.05;;;;;;;11.26;100.00;97174.69;4976764;28;20511;-63
2021/10/11 06:42:24;;;;;;;17.60;9.65;;;;;;;11.50;100.00;97217.84;4978649;28;20054;-63
2021/10/11 06:44:51;;;;;;;13.40;8.13;;;;;;;11.48;100.00;97211.88;4977737;28;20538;-63
2021/10/11 06:47:18;;;;;;;16.98;9.80;;;;;;;11.82;100.00;97252.50;4996123;28;20475;-63
2021/10/11 06:49:46;;;;;;;17.58;9.48;;;;;;;11.18;100.00;97164.63;5024769;28;20054;-62
2021/10/11 06:52:14;;;;;;;16.92;9.38;;;;;;;10.94;100.00;97092.19;5019882;28;20129;-61
2021/10/11 06:54:41;;;;;;;18.58;10.80;;;;;;;11.69;100.00;97203.91;5021081;28;20053;-63
2021/10/11 06:57:08;;;;;;;15.10;8.88;;;;;;;12.06;100.00;97238.19;5024068;28;20073;-63
2021/10/11 06:59:36;;;;;;;16.67;9.50;;;;;;;10.08;100.00;96927.75;5021632;28;20061;-64
2021/10/11 07:02:03;;;;;;;15.90;8.20;;;;;;;12.16;100.00;97248.63;5021447;28;20056;-62
2021/10/11 07:04:37;;;;;;;13.73;8.98;;;;;;;12.08;100.00;97241.38;5019214;28;20053;-60
2021/10/11 07:07:05;;;;;;;16.33;9.23;;;;;;;12.12;100.00;97245.00;5042403;28;20052;-63
2021/10/11 07:09:32;;;;;;;22.58;11.43;;;;;;;12.18;100.00;97235.16;5037269;28;20535;-61
2021/10/11 07:11:59;;;;;;;27.05;11.55;;;;;;;12.24;100.00;97239.22;5022317;28;20524;-61
2021/10/11 07:14:25;;;;;;;21.42;10.63;;;;;;;12.17;100.00;97233.56;5023824;28;20500;-63
2021/10/11 07:16:52;;;;;;;23.63;10.95;;;;;;;12.16;100.00;97231.97;5022526;28;20421;-62
2021/10/11 07:19:19;;;;;;;14.38;8.55;;;;;;;12.11;100.00;97223.94;5023868;28;20058;-61
2021/10/11 07:21:46;;;;;;;14.40;7.53;;;;;;;11.04;100.00;97102.63;5023371;28;20065;-62
2021/10/11 07:24:15;;;;;;;16.83;9.75;;;;;;;11.08;100.00;97092.41;5023993;28;20061;-61
2021/10/11 07:26:42;;;;;;;14.00;7.93;;;;;;;11.67;100.00;97186.81;5018677;28;20056;-66
2021/10/11 07:29:08;;;;;;;16.05;7.88;;;;;;;10.89;100.00;97084.16;5020273;28;20371;-61
2021/10/11 07:31:35;;;;;;;17.42;9.13;;;;;;;11.75;100.00;97189.34;5023743;28;20050;-64
2021/10/11 07:34:02;;;;;;;16.15;8.55;;;;;;;11.96;100.00;97202.72;5023670;28;20084;-61
2021/10/11 07:36:29;;;;;;;19.38;8.70;;;;;;;11.74;100.00;97175.84;5022069;28;20436;-60
2021/10/11 07:38:55;;;;;;;12.30;8.48;;;;;;;10.31;100.00;96937.63;5022310;28;20509;-60
2021/10/11 07:41:22;;;;;;;17.02;8.23;;;;;;;12.18;100.00;97218.50;5023263;28;20137;-61
2021/10/11 07:43:49;;;;;;;17.38;7.43;;;;;;;11.58;100.00;97098.31;5024090;28;20053;-61
2021/10/11 07:46:16;;;;;;;13.32;7.00;;;;;;;12.26;100.00;97203.53;5023925;28;20056;-62
2021/10/11 07:48:43;;;;;;;11.68;7.18;;;;;;;12.09;100.00;97173.56;5019457;28;20053;-60
2021/10/11 07:51:10;;;;;;;12.52;7.85;;;;;;;12.23;100.00;97173.75;5003895;28;20510;-60
2021/10/11 07:53:36;;;;;;;13.02;7.15;;;;;;;11.93;100.00;97150.75;5011495;28;20052;-60
2021/10/11 07:56:03;;;;;;;14.02;8.30;;;;;;;12.10;100.00;97172.38;5020077;28;20051;-59
2021/10/11 07:58:30;;;;;;;12.18;7.07;;;;;;;11.52;100.00;97110.09;5020740;28;20432;-61
2021/10/11 08:00:57;;;;;;;14.90;8.88;;;;;;;11.93;100.00;97156.28;5021067;28;20605;-61
2021/10/11 08:03:26;;;;;;;16.73;7.47;;;;;;;11.93;100.00;97156.28;5023235;28;20139;-60
2021/10/11 08:05:53;;;;;;;13.63;7.93;;;;;;;12.17;100.00;97189.16;5022912;28;20050;-64
2021/10/11 08:08:19;;;;;;;16.58;9.38;;;;;;;11.36;100.00;97103.91;5020371;28;20302;-62
2021/10/11 08:10:46;;;;;;;16.95;9.35;;;;;;;11.58;100.00;97089.16;5021722;28;20049;-63
2021/10/11 08:13:14;;;;;;;12.40;8.35;;;;;;;12.15;100.00;97180.38;5023265;28;20166;-61
2021/10/11 08:15:41;;;;;;;17.08;9.35;;;;;;;12.02;100.00;97145.69;5022487;28;20706;-60
2021/10/11 08:18:08;;;;;;;13.85;8.35;;;;;;;11.32;100.00;97030.94;5022748;28;20144;-62
2021/10/11 08:20:35;;;;;;;13.82;7.88;;;;;;;11.27;100.00;97039.63;5022005;28;20057;-60
2021/10/11 08:23:02;;;;;;;21.85;11.18;;;;;;;11.75;100.00;97089.44;5022766;28;20049;-61
2021/10/11 08:25:29;;;;;;;17.10;9.23;;;;;;;12.30;100.00;97168.25;5017092;28;20056;-61
2021/10/11 08:27:55;;;;;;;20.48;10.45;;;;;;;11.82;100.00;97063.75;5022398;28;20508;-62
2021/10/11 08:30:23;;;;;;;28.02;11.85;;;;;;;11.72;100.00;97033.91;5022631;28;20056;-59
2021/10/11 08:32:49;;;;;;;18.67;8.80;;;;;;;12.47;100.00;97162.09;5022733;28;20083;-64
2021/10/11 08:35:16;;;;;;;14.40;9.13;;;;;;;11.51;100.00;97006.66;5022538;28;20427;-63
2021/10/11 08:37:43;;;;;;;15.70;8.48;;;;;;;11.77;100.00;97097.41;5020262;28;20053;-63
2021/10/11 08:40:11;;;;;;;16.75;8.50;;;;;;;12.07;100.00;97114.84;5022788;28;20049;-63
2021/10/11 08:42:39;;;;;;;16.45;9.35;;;;;;;12.23;100.00;97123.75;5019592;28;20052;-62
2021/10/11 08:45:08;;;;;;;17.00;8.70;;;;;;;12.29;100.00;97122.22;5021540;28;20053;-63
2021/10/11 08:47:34;;;;;;;16.00;9.80;;;;;;;12.09;100.00;97087.50;5021629;28;20171;-65
2021/10/11 08:50:03;;;;;;;18.23;9.93;;;;;;;12.26;100.00;97125.78;5020992;28;20050;-62
2021/10/11 08:52:30;;;;;;;16.70;9.23;;;;;;;12.52;100.00;97145.09;5019110;28;20072;-64
2021/10/11 08:54:57;;;;;;;15.05;9.70;;;;;;;12.64;100.00;97147.63;5019336;28;20050;-63
2021/10/11 08:57:32;;;;;;;14.40;8.25;;;;;;;12.48;100.00;97133.16;5022155;28;20109;-63
2021/10/11 09:00:25;;;;;;;14.50;7.85;;;;;;;12.53;100.00;97146.72;5022635;28;20049;-61
2021/10/11 09:02:56;;;;;;;11.02;6.80;;;;;;;12.30;100.00;97121.03;5023814;28;20049;-63
2021/10/11 09:05:32;;;;;;;15.48;9.40;;;;;;;12.50;100.00;97108.59;5024482;28;20072;-61
2021/10/11 09:08:06;;;;;;;16.65;9.23;;;;;;;12.75;100.00;97147.72;5016907;28;20050;-60
2021/10/11 09:10:54;;;;;;;11.18;7.63;;;;;;;12.78;100.00;97158.91;5022331;28;20053;-61
2021/10/11 09:13:26;;;;;;;11.25;7.82;;;;;;;12.47;100.00;97106.53;5026671;28;20049;-59
2021/10/11 09:16:31;;;;;;;18.87;9.50;;;;;;;12.78;100.00;97153.34;5026630;28;20121;-64
2021/10/11 09:19:13;;;;;;;12.40;7.28;;;;;;;12.80;100.00;97137.09;5026700;28;20089;-61
2021/10/11 09:21:40;;;;;;;15.27;8.10;;;;;;;12.97;100.00;97144.78;5026662;28;20071;-60
2021/10/11 09:24:33;;;;;;;17.33;8.80;;;;;;;12.37;100.00;97032.25;5025149;28;20053;-63
2021/10/11 09:27:00;;;;;;;8.13;6.05;;;;;;;13.01;100.00;97133.72;5023178;28;20049;-62
2021/10/11 09:29:39;;;;;;;12.25;7.05;;;;;;;13.16;100.00;97127.91;5025161;28;20085;-62
2021/10/11 09:32:09;;;;;;;16.83;8.07;;;;;;;12.97;100.00;97080.84;5025086;28;20478;-62
2021/10/11 09:34:40;;;;;;;9.98;5.50;;;;;;;13.13;100.00;97120.34;5024785;28;20053;-61
2021/10/11 09:37:09;;;;;;;11.32;5.60;;;;;;;13.16;100.00;97124.31;5025752;28;20076;-62
2021/10/11 09:39:39;;;;;;;8.90;5.68;;;;;;;13.05;100.00;97113.13;5023547;28;20104;-64
2021/10/11 09:42:10;;;;;;;8.60;5.57;;;;;;;12.96;100.00;97081.22;5025737;28;20056;-66
2021/10/11 09:44:37;;;;;;;10.00;5.60;;;;;;;13.10;100.00;97104.38;5024032;28;20049;-61
2021/10/11 09:47:09;;;;;;;9.82;5.20;;;;;;;12.38;100.00;96989.38;5024928;28;20045;-65
2021/10/11 09:49:38;;;;;;;7.38;5.38;;;;;;;13.13;100.00;97108.41;5023824;28;20056;-62
2021/10/11 09:52:05;;;;;;;6.88;4.80;;;;;;;13.04;100.00;97100.38;5026000;28;20528;-60
2021/10/11 09:54:32;;;;;;;6.97;4.25;;;;;;;12.87;100.00;97058.47;5024847;28;20143;-57
2021/10/11 09:57:00;;;;;;;6.68;4.70;;;;;;;13.25;100.00;97111.69;5025248;28;20075;-61
2021/10/11 09:59:28;;;;;;;6.47;4.65;;;;;;;13.23;100.00;97091.78;5025712;28;20188;-62
2021/10/11 10:01:55;;;;;;;6.15;4.55;;;;;;;13.19;100.00;97090.97;5025203;28;20495;-61
2021/10/11 10:04:26;;;;;;;6.57;4.93;;;;;;;12.70;100.00;97018.25;5025082;28;20123;-61
2021/10/11 10:06:55;;;;;;;8.95;5.90;;;;;;;13.15;100.00;97084.56;5025123;28;20057;-64
2021/10/11 10:09:25;;;;;;;9.43;5.40;;;;;;;13.11;100.00;97083.75;5025659;28;20115;-62
2021/10/11 10:11:52;;;;;;;8.82;5.80;;;;;;;13.14;100.00;97082.97;5024522;28;20041;-69
2021/10/11 10:14:23;;;;;;;8.75;5.50;;;;;;;12.98;100.00;97062.97;5021433;28;20554;-67
2021/10/11 10:16:53;;;;;;;9.95;6.40;;;;;;;13.04;100.00;97075.34;5024077;28;20148;-67
2021/10/11 10:19:31;;;;;;;7.43;5.43;;;;;;;12.46;100.00;97023.56;5024271;28;20053;-65
2021/10/11 10:21:58;;;;;;;13.27;6.13;;;;;;;12.78;100.00;97069.94;5022790;28;20049;-61
2021/10/11 10:24:26;;;;;;;9.73;5.68;;;;;;;12.66;100.00;97067.44;5024057;28;20061;-59
2021/10/11 10:27:04;;;;;;;8.23;5.50;;;;;;;12.03;100.00;96967.63;5024727;28;20045;-60
2021/10/11 10:29:48;;;;;;;10.38;5.97;;;;;;;12.63;100.00;97043.19;5025742;28;20104;-65
2021/10/11 10:32:18;;;;;;;14.63;8.15;;;;;;;12.64;100.00;97053.16;5025124;28;20409;-68
2021/10/11 10:35:01;;;;;;;8.90;5.57;;;;;;;12.26;100.00;96998.00;5024993;28;20051;-63
2021/10/11 10:37:38;;;;;;;7.43;5.10;;;;;;;12.52;100.00;97047.06;5023867;28;20057;-61
2021/10/11 10:40:10;;;;;;;9.35;6.25;;;;;;;12.33;100.00;97011.94;5024474;28;20183;-66
2021/10/11 10:42:37;;;;;;;9.65;6.35;;;;;;;12.30;100.00;97020.28;5025895;28;20245;-62
2021/10/11 10:45:13;;;;;;;11.98;6.75;;;;;;;12.55;100.00;97043.53;5024991;28;20504;-60
2021/10/11 10:47:41;;;;;;;10.77;5.97;;;;;;;12.30;100.00;97032.16;5024497;28;20533;-63
2021/10/11 10:50:12;;;;;;;11.07;6.68;;;;;;;12.50;100.00;97036.34;5024490;28;20046;-59
2021/10/11 10:52:39;;;;;;;12.48;7.18;;;;;;;11.29;100.00;96843.16;5025467;28;20064;-60
2021/10/11 10:55:07;;;;;;;17.65;16.15;;;;;;;12.46;100.00;97013.28;5024805;28;20064;-65
2021/10/11 10:57:33;;;;;;;12.73;7.57;;;;;;;11.02;100.00;96761.28;5004968;28;20527;-59
2021/10/11 11:00:13;;;;;;;14.02;7.50;;;;;;;11.83;100.00;96896.06;5004102;28;20050;-63
2021/10/11 11:02:49;;;;;;;15.95;8.48;;;;;;;12.58;100.00;96979.66;4996220;28;20069;-62
2021/10/11 11:05:19;;;;;;;9.95;6.22;;;;;;;12.82;100.00;97017.94;4985291;28;20061;-59
2021/10/11 11:07:50;;;;;;;7.75;5.03;;;;;;;12.84;100.00;97023.13;4992312;28;20057;-63
2021/10/11 11:10:18;;;;;;;8.43;5.75;;;;;;;12.82;100.00;97015.16;5003984;28;20056;-65
2021/10/11 11:12:53;;;;;;;10.68;6.40;;;;;;;12.84;100.00;97012.81;4988164;28;20576;-63
2021/10/11 11:15:33;;;;;;;8.75;5.80;;;;;;;12.74;100.00;97005.16;5002693;28;20623;-61
2021/10/11 11:18:11;;;;;;;8.85;6.20;;;;;;;12.69;100.00;96972.22;5003909;28;20103;-64
2021/10/11 11:20:40;;;;;;;11.23;7.63;;;;;;;12.90;100.00;97016.81;5002379;28;20061;-60
2021/10/11 11:23:10;;;;;;;12.07;7.60;;;;;;;12.89;100.00;96993.00;5003559;28;20050;-66
2021/10/11 11:25:43;;;;;;;16.63;8.82;;;;;;;12.79;100.00;96999.25;5001824;28;20085;-64
2021/10/11 11:28:12;;;;;;;12.65;7.05;;;;;;;12.41;100.00;96916.41;5003017;28;20046;-61
2021/10/11 11:30:39;;;;;;;9.85;5.72;;;;;;;12.11;100.00;96874.91;5002171;28;20078;-60
2021/10/11 11:33:10;;;;;;;9.65;6.20;;;;;;;12.96;100.00;97004.16;5005800;28;20136;-62
2021/10/11 11:35:43;;;;;;;10.52;5.32;;;;;;;13.02;100.00;96997.09;5002724;28;20053;-61
2021/10/11 11:38:14;;;;;;;8.55;5.40;;;;;;;12.68;100.00;96933.66;5004287;28;20053;-58
2021/10/11 11:40:53;;;;;;;8.85;5.55;;;;;;;13.05;100.00;96979.63;5001972;28;20049;-61
2021/10/11 11:43:21;;;;;;;8.73;5.40;;;;;;;12.87;100.00;96944.50;5004042;28;20049;-64
2021/10/11 11:45:52;;;;;;;11.10;6.65;;;;;;;13.22;100.00;96978.13;5003820;28;20415;-63
2021/10/11 11:48:28;;;;;;;9.18;5.47;;;;;;;12.16;100.00;96837.66;5003420;28;20053;-59
2021/10/11 11:51:07;;;;;;;14.82;7.30;;;;;;;13.16;100.00;96986.06;5002971;28;20560;-58
2021/10/11 11:53:36;;;;;;;9.80;5.43;;;;;;;13.12;100.00;96957.41;5011283;28;20056;-62